Time;durP1;ratioP1;P1;durP2;ratioP2;P2;SDS_P1;SDS_P2;PMS_P1;PMS_P2;Temp;Humidity;BMP_temperature;BMP_pressure;BME280_temperature;BME280_humidity;BME280_pressure;Samples;Min_cycle;Max_cycle;Signal;HPM_P1;HPM_P2
2021/09/28 00:01:08;;;;;;;9.77;2.50;;;13.10;99.90;;;12.91;100.00;101950.13;4135909;28;20046;-75
2021/09/28 00:03:09;;;;;;;9.68;1.90;;;13.20;99.90;;;12.93;100.00;101938.41;4135898;28;20081;-75
2021/09/28 00:05:10;;;;;;;6.85;1.98;;;13.30;99.90;;;12.87;100.00;101936.34;4134451;28;20085;-75
2021/09/28 00:07:11;;;;;;;5.13;1.40;;;13.30;99.90;;;12.94;100.00;101939.25;4136328;28;20038;-75
2021/09/28 00:09:12;;;;;;;6.25;2.25;;;13.40;99.90;;;12.90;100.00;101933.41;4128064;28;20445;-75
2021/09/28 00:11:13;;;;;;;8.95;2.17;;;13.40;99.90;;;12.85;100.00;101938.28;4160831;28;20049;-75
2021/09/28 00:13:16;;;;;;;7.38;2.33;;;13.40;99.90;;;12.88;100.00;101940.66;4141002;28;20186;-75
2021/09/28 00:15:18;;;;;;;5.32;1.95;;;13.40;99.90;;;12.89;100.00;101931.75;4138746;28;20042;-75
2021/09/28 00:17:19;;;;;;;8.70;1.85;;;13.30;99.90;;;12.85;100.00;101930.34;4137930;28;20022;-75
2021/09/28 00:19:20;;;;;;;7.70;1.98;;;13.30;99.90;;;12.81;100.00;101936.91;4138960;28;20031;-74
2021/09/28 00:21:21;;;;;;;8.05;2.65;;;13.20;99.90;;;12.65;100.00;101923.41;4137741;28;20030;-75
2021/09/28 00:23:22;;;;;;;7.40;1.80;;;13.10;99.90;;;12.65;100.00;101944.56;4139055;28;20065;-75
2021/09/28 00:25:23;;;;;;;7.85;1.60;;;13.10;99.90;;;12.65;100.00;101945.41;4138891;28;20022;-75
2021/09/28 00:27:24;;;;;;;10.95;1.98;;;13.00;99.90;;;12.67;100.00;101940.81;4137686;28;20501;-75
2021/09/28 00:29:25;;;;;;;5.93;1.60;;;13.00;99.90;;;12.66;100.00;101941.78;4137479;28;20022;-75
2021/09/28 00:31:26;;;;;;;9.00;2.38;;;13.10;99.90;;;12.60;100.00;101941.53;4138591;28;20027;-75
2021/09/28 00:33:28;;;;;;;6.80;1.90;;;13.00;99.90;;;12.62;100.00;101929.81;4137664;28;20038;-75
2021/09/28 00:35:29;;;;;;;8.88;2.53;;;13.00;99.90;;;12.64;100.00;101935.81;4121275;28;20035;-75
2021/09/28 00:37:30;;;;;;;8.30;2.03;;;13.00;99.90;;;12.66;100.00;101933.84;4137453;28;20104;-75
2021/09/28 00:39:30;;;;;;;5.47;1.60;;;13.00;99.90;;;12.62;100.00;101923.69;4138649;28;20031;-75
2021/09/28 00:41:31;;;;;;;5.20;1.48;;;13.00;99.90;;;12.65;100.00;101928.69;4137486;28;20116;-75
2021/09/28 00:43:53;;;;;;;9.55;2.55;;;13.00;99.90;;;12.70;100.00;101926.44;4138279;28;20054;-75
2021/09/28 00:45:54;;;;;;;6.15;1.52;;;13.00;99.90;;;12.59;100.00;101918.66;4138524;28;20036;-75
2021/09/28 00:47:55;;;;;;;6.60;1.40;;;13.00;99.90;;;12.57;100.00;101923.28;4138580;28;20475;-75
2021/09/28 00:49:57;;;;;;;5.97;1.98;;;13.00;99.90;;;12.54;100.00;101913.81;4121072;28;20030;-75
2021/09/28 00:51:58;;;;;;;6.50;1.85;;;13.00;99.90;;;12.52;100.00;101922.84;4138395;28;20161;-75
2021/09/28 00:54:01;;;;;;;11.63;2.00;;;12.90;99.90;;;12.54;100.00;101920.91;4137144;28;20074;-75
2021/09/28 00:56:02;;;;;;;7.38;1.65;;;12.90;99.90;;;12.47;100.00;101911.84;4138395;28;20042;-75
2021/09/28 00:58:08;;;;;;;8.65;2.38;;;12.90;99.90;;;12.43;100.00;101919.22;4138064;28;20038;-75
2021/09/28 01:00:10;;;;;;;7.40;2.63;;;12.90;99.90;;;12.45;100.00;101917.28;4137212;28;20062;-75
2021/09/28 01:02:14;;;;;;;6.22;2.00;;;12.80;99.90;;;12.48;100.00;101916.19;4136879;28;20069;-75
2021/09/28 01:04:16;;;;;;;8.43;1.90;;;12.80;99.90;;;12.29;100.00;101905.56;4136901;28;20065;-74
2021/09/28 01:06:17;;;;;;;4.53;1.33;;;12.80;99.90;;;12.31;100.00;101916.84;4138029;28;20141;-74
2021/09/28 01:08:17;;;;;;;5.53;1.73;;;12.80;99.90;;;12.34;100.00;101914.75;4138145;28;20490;-75
2021/09/28 01:10:19;;;;;;;9.90;1.92;;;12.80;99.90;;;12.31;100.00;101912.41;4133616;28;20030;-74
2021/09/28 01:12:20;;;;;;;8.15;1.52;;;12.70;99.90;;;12.41;100.00;101910.59;4137052;28;20426;-75
2021/09/28 01:14:21;;;;;;;6.53;1.45;;;12.70;99.90;;;12.43;100.00;101902.50;4136403;28;20089;-75
2021/09/28 01:16:24;;;;;;;3.20;1.17;;;12.70;99.90;;;12.43;100.00;101905.16;4138035;28;20053;-75
2021/09/28 01:18:32;;;;;;;4.68;1.73;;;12.70;99.90;;;12.36;100.00;101896.13;4119979;28;20033;-75
2021/09/28 01:20:36;;;;;;;5.75;1.27;;;12.70;99.90;;;12.35;100.00;101883.84;4136928;28;20041;-75
2021/09/28 01:22:37;;;;;;;5.32;1.30;;;12.70;99.90;;;12.39;100.00;101888.75;4136838;28;20030;-75
2021/09/28 01:24:42;;;;;;;5.00;1.80;;;12.70;99.90;;;12.44;100.00;101897.09;4136599;28;20037;-75
2021/09/28 01:26:43;;;;;;;9.10;1.90;;;12.70;99.90;;;12.42;100.00;101892.91;4138042;28;20037;-75
2021/09/28 01:28:45;;;;;;;3.10;1.35;;;12.70;99.90;;;12.37;100.00;101893.31;4137726;28;20065;-74
2021/09/28 01:30:47;;;;;;;7.22;1.80;;;12.70;99.90;;;12.32;100.00;101886.78;4136468;28;20030;-75
2021/09/28 01:32:47;;;;;;;8.02;1.38;;;12.70;99.90;;;12.28;100.00;101880.09;4136574;28;20022;-75
2021/09/28 01:34:48;;;;;;;5.70;1.90;;;12.70;99.90;;;12.29;100.00;101879.97;4120273;28;20429;-75
2021/09/28 01:36:50;;;;;;;6.85;1.65;;;12.70;99.90;;;12.27;100.00;101881.06;4136695;28;20485;-75
2021/09/28 01:38:51;;;;;;;8.18;2.17;;;12.70;99.90;;;12.21;100.00;101880.63;4136632;28;20026;-75
2021/09/28 01:40:52;;;;;;;9.93;2.35;;;12.70;99.90;;;12.16;100.00;101882.88;4137662;28;20029;-75
2021/09/28 01:42:53;;;;;;;5.47;1.77;;;12.60;99.90;;;12.12;100.00;101873.56;4136507;28;20030;-75
2021/09/28 01:44:53;;;;;;;7.60;2.00;;;12.60;99.90;;;12.11;100.00;101876.34;4140084;28;20109;-75
2021/09/28 01:46:54;;;;;;;9.73;2.08;;;12.60;99.90;;;12.16;100.00;101874.94;4136390;28;20042;-75
2021/09/28 01:48:56;;;;;;;6.28;2.17;;;12.60;99.90;;;12.11;100.00;101865.75;4137477;28;20410;-74
2021/09/28 01:50:57;;;;;;;8.32;1.45;;;12.60;99.90;;;12.21;100.00;101871.88;4136290;28;20038;-75
2021/09/28 01:52:58;;;;;;;6.93;1.70;;;12.60;99.90;;;12.27;100.00;101875.78;4136323;28;20030;-75
2021/09/28 01:54:59;;;;;;;6.30;1.75;;;12.70;99.90;;;12.34;100.00;101866.28;4136211;28;20065;-75
2021/09/28 01:57:00;;;;;;;7.60;2.00;;;12.70;99.90;;;12.38;100.00;101863.25;4136258;28;20026;-75
2021/09/28 01:59:04;;;;;;;7.65;1.95;;;12.80;99.90;;;12.38;100.00;101850.00;4136006;28;20419;-74
2021/09/28 02:01:05;;;;;;;7.55;1.85;;;12.80;99.90;;;12.35;100.00;101862.69;4136282;28;20557;-75
2021/09/28 02:03:06;;;;;;;5.55;1.42;;;12.70;99.90;;;12.28;100.00;101865.06;4119995;28;20035;-75
2021/09/28 02:05:08;;;;;;;7.68;1.83;;;12.70;99.90;;;12.34;100.00;101855.72;4137186;28;20038;-75
2021/09/28 02:07:09;;;;;;;9.15;1.77;;;12.80;99.90;;;12.32;100.00;101849.72;4139196;28;20037;-75
2021/09/28 02:09:10;;;;;;;9.57;2.85;;;12.80;99.90;;;12.25;100.00;101851.25;4153453;28;20481;-75
2021/09/28 02:11:11;;;;;;;9.27;2.45;;;12.70;99.90;;;12.25;100.00;101846.81;4143159;28;20046;-75
2021/09/28 02:13:14;;;;;;;5.72;1.80;;;12.80;99.90;;;12.27;100.00;101851.97;4135680;28;20042;-75
2021/09/28 02:15:15;;;;;;;8.80;1.77;;;12.70;99.90;;;12.29;100.00;101847.38;4136962;28;20062;-75
2021/09/28 02:17:16;;;;;;;9.95;2.42;;;12.70;99.90;;;12.23;100.00;101842.63;4137186;28;20409;-75
2021/09/28 02:19:17;;;;;;;8.75;1.90;;;12.80;99.90;;;12.21;100.00;101833.03;4135848;28;20064;-75
2021/09/28 02:21:18;;;;;;;11.43;3.03;;;12.80;99.90;;;12.23;100.00;101824.13;4135858;28;20430;-74
2021/09/28 02:23:19;;;;;;;9.13;2.00;;;12.80;99.90;;;12.27;100.00;101818.44;4134601;28;20030;-75
2021/09/28 02:25:21;;;;;;;6.75;2.33;;;12.80;99.90;;;12.39;100.00;101822.59;4157132;28;20055;-75
2021/09/28 02:27:22;;;;;;;6.28;1.90;;;12.90;99.90;;;12.37;100.00;101829.81;4151977;28;20501;-75
2021/09/28 02:29:23;;;;;;;8.20;2.25;;;12.90;99.90;;;12.40;100.00;101828.69;4123528;28;20078;-75
2021/09/28 02:31:24;;;;;;;7.53;2.45;;;12.80;99.90;;;12.49;100.00;101826.03;4118749;28;20027;-75
2021/09/28 02:33:25;;;;;;;9.50;2.08;;;12.80;99.90;;;12.45;100.00;101823.84;4135625;28;20066;-75
2021/09/28 02:35:26;;;;;;;7.35;1.40;;;12.90;99.90;;;12.41;100.00;101825.06;4135596;28;20430;-75
2021/09/28 02:37:27;;;;;;;9.93;2.03;;;12.90;99.90;;;12.39;100.00;101825.22;4135601;28;20030;-75
2021/09/28 02:39:28;;;;;;;13.25;2.72;;;12.90;99.90;;;12.42;100.00;101832.88;4135373;28;20379;-75
2021/09/28 02:41:28;;;;;;;12.57;2.55;;;12.80;99.90;;;12.52;100.00;101830.22;4135506;28;20101;-75
2021/09/28 02:43:30;;;;;;;8.48;1.90;;;12.90;99.90;;;12.39;100.00;101827.88;4136504;28;20089;-75
2021/09/28 02:45:31;;;;;;;10.63;2.60;;;12.90;99.90;;;12.24;100.00;101829.28;4139097;28;20168;-75
2021/09/28 02:47:32;;;;;;;10.27;2.17;;;12.80;99.90;;;12.31;100.00;101829.53;4136531;28;20038;-75
2021/09/28 02:49:33;;;;;;;7.35;2.47;;;12.80;99.90;;;12.41;100.00;101825.06;4136787;28;20030;-75
2021/09/28 02:51:33;;;;;;;8.10;1.70;;;12.80;99.90;;;12.30;100.00;101818.16;4135576;28;20030;-75
2021/09/28 02:53:34;;;;;;;5.03;1.90;;;12.90;99.90;;;12.36;100.00;101822.03;4119365;28;20034;-75
2021/09/28 02:55:37;;;;;;;8.27;3.03;;;12.80;99.90;;;12.30;100.00;101828.72;4136364;28;20130;-74
2021/09/28 02:57:37;;;;;;;11.10;2.42;;;12.90;99.90;;;12.31;100.00;101832.19;4122853;28;20429;-75
2021/09/28 02:59:39;;;;;;;9.13;1.95;;;12.80;99.90;;;12.24;100.00;101820.50;4135009;28;20026;-75
2021/09/28 03:01:40;;;;;;;10.57;2.03;;;12.80;99.90;;;12.36;100.00;101819.38;4151538;28;20525;-75
2021/09/28 03:03:40;;;;;;;12.00;2.90;;;12.80;99.90;;;12.36;100.00;101822.03;4151356;28;20053;-75
2021/09/28 03:05:42;;;;;;;6.97;2.33;;;12.90;99.90;;;12.25;100.00;101814.22;4151319;28;20051;-75
2021/09/28 03:07:42;;;;;;;9.02;2.80;;;12.90;99.90;;;12.18;100.00;101817.44;4151507;28;20480;-75
2021/09/28 03:09:43;;;;;;;6.78;1.85;;;12.90;99.90;;;12.25;100.00;101811.56;4151429;28;20029;-75
2021/09/28 03:11:44;;;;;;;6.75;1.73;;;12.80;99.90;;;12.35;100.00;101826.47;4137345;28;20038;-75
2021/09/28 03:13:45;;;;;;;14.63;2.90;;;12.80;99.90;;;12.31;100.00;101817.16;4136051;28;20062;-75
2021/09/28 03:15:46;;;;;;;8.60;1.70;;;12.80;99.90;;;12.36;100.00;101807.00;4135156;28;20390;-75
2021/09/28 03:17:47;;;;;;;13.43;3.35;;;12.80;99.90;;;12.37;100.00;101807.81;4135120;28;20061;-75
2021/09/28 03:19:48;;;;;;;14.13;2.97;;;12.80;99.90;;;12.37;100.00;101813.94;4136136;28;20508;-75
2021/09/28 03:21:49;;;;;;;8.90;2.78;;;12.80;99.90;;;12.28;100.00;101804.19;4136365;28;20026;-75
2021/09/28 03:23:50;;;;;;;16.65;2.65;;;12.80;99.90;;;12.34;100.00;101802.78;4136424;28;20027;-75
2021/09/28 03:25:51;;;;;;;9.07;2.50;;;12.80;99.90;;;12.34;100.00;101808.09;4136297;28;20022;-75
2021/09/28 03:27:52;;;;;;;6.13;1.60;;;12.80;99.90;;;12.46;100.00;101809.59;4134771;28;20026;-75
2021/09/28 03:29:53;;;;;;;9.38;2.42;;;12.80;99.90;;;12.43;100.00;101808.06;4134972;28;20688;-75
2021/09/28 03:31:54;;;;;;;9.63;1.80;;;12.80;99.90;;;12.48;100.00;101803.22;4135128;28;20023;-75
2021/09/28 03:33:55;;;;;;;8.10;2.00;;;12.90;99.90;;;12.43;100.00;101801.94;4134870;28;20030;-75
2021/09/28 03:35:56;;;;;;;9.23;2.13;;;12.80;99.90;;;12.46;100.00;101799.84;4136060;28;20030;-75
2021/09/28 03:37:57;;;;;;;7.10;2.47;;;12.90;99.90;;;12.46;100.00;101797.22;4136017;28;20105;-75
2021/09/28 03:39:58;;;;;;;5.78;1.92;;;12.90;99.90;;;12.49;100.00;101796.09;4135004;28;20038;-75
2021/09/28 03:42:00;;;;;;;21.63;2.80;;;12.90;99.90;;;12.35;100.00;101788.59;4135630;28;20062;-74
2021/09/28 03:44:00;;;;;;;8.57;1.60;;;12.90;99.90;;;12.42;100.00;101795.84;4137687;28;20037;-75
2021/09/28 03:46:02;;;;;;;11.27;2.05;;;12.90;99.90;;;12.28;100.00;101792.78;4136480;28;20493;-75
2021/09/28 03:48:04;;;;;;;11.80;2.15;;;12.80;99.90;;;12.29;100.00;101799.75;4136033;28;20026;-75
2021/09/28 03:50:07;;;;;;;7.30;2.50;;;12.80;99.90;;;12.32;100.00;101783.59;4134868;28;20030;-75
2021/09/28 03:52:08;;;;;;;7.82;2.15;;;12.80;99.90;;;12.27;100.00;101780.53;4135950;28;20030;-75
2021/09/28 03:54:09;;;;;;;6.65;1.63;;;12.80;99.90;;;12.33;100.00;101788.75;4135969;28;20109;-75
2021/09/28 03:56:09;;;;;;;8.80;2.13;;;12.80;99.90;;;12.38;100.00;101794.44;4136013;28;20030;-75
2021/09/28 03:58:12;;;;;;;6.82;1.92;;;12.80;99.90;;;12.37;100.00;101784.84;4134474;28;20035;-75
2021/09/28 04:00:15;;;;;;;10.38;2.80;;;12.80;99.90;;;12.44;100.00;101771.88;4134719;28;20521;-75
2021/09/28 04:02:15;;;;;;;5.80;2.25;;;12.80;99.90;;;12.41;100.00;101778.28;4134492;28;20031;-75
2021/09/28 04:04:16;;;;;;;8.25;1.50;;;12.90;99.90;;;12.41;100.00;101782.75;4134755;28;20479;-75
2021/09/28 04:06:17;;;;;;;6.70;2.28;;;12.80;99.90;;;12.49;100.00;101782.84;4135678;28;20047;-75
2021/09/28 04:08:18;;;;;;;10.25;2.13;;;12.80;99.90;;;12.43;100.00;101786.91;4135850;28;20034;-75
2021/09/28 04:10:19;;;;;;;9.07;2.22;;;12.90;99.90;;;12.43;100.00;101780.78;4149783;28;20089;-75
2021/09/28 04:12:21;;;;;;;10.13;2.55;;;12.80;99.90;;;12.44;100.00;101790.41;4145153;28;20490;-75
2021/09/28 04:14:22;;;;;;;6.78;2.00;;;12.80;99.90;;;12.37;100.00;101774.25;4135514;28;20040;-75
2021/09/28 04:16:25;;;;;;;7.38;1.83;;;12.80;99.90;;;12.40;100.00;101786.34;4134518;28;20494;-75
2021/09/28 04:18:25;;;;;;;6.88;1.70;;;12.80;99.90;;;12.37;100.00;101781.34;4134611;28;20032;-75
2021/09/28 04:20:26;;;;;;;4.93;1.60;;;12.80;99.90;;;12.33;100.00;101786.13;4135819;28;20031;-75
2021/09/28 04:22:27;;;;;;;9.77;2.13;;;12.80;99.90;;;12.30;100.00;101783.75;4134656;28;20391;-75
2021/09/28 04:24:30;;;;;;;8.05;1.70;;;12.80;99.90;;;12.21;100.00;101782.75;4134604;28;20610;-74
2021/09/28 04:26:32;;;;;;;6.68;2.22;;;12.80;99.90;;;12.34;100.00;101782.47;4134389;28;20061;-75
2021/09/28 04:28:35;;;;;;;8.02;1.63;;;12.80;99.90;;;12.31;100.00;101785.41;4134450;28;20061;-75
2021/09/28 04:30:36;;;;;;;5.15;1.75;;;12.80;99.90;;;12.38;100.00;101780.38;4134594;28;20498;-75
2021/09/28 04:32:37;;;;;;;9.30;1.83;;;12.80;99.90;;;12.46;100.00;101772.56;4134504;28;20038;-75
2021/09/28 04:34:38;;;;;;;12.18;2.30;;;12.80;99.90;;;12.44;100.00;101782.47;4135483;28;20517;-75
2021/09/28 04:36:39;;;;;;;6.38;2.03;;;12.80;99.90;;;12.35;100.00;101778.84;4135829;28;20054;-75
2021/09/28 04:38:40;;;;;;;9.57;2.45;;;12.80;99.90;;;12.30;100.00;101767.03;4134528;28;20057;-75
2021/09/28 04:40:42;;;;;;;6.75;2.25;;;12.80;99.90;;;12.38;100.00;101775.09;4134461;28;20035;-75
2021/09/28 04:42:43;;;;;;;7.65;1.80;;;12.80;99.90;;;12.42;100.00;101766.75;4134242;28;20055;-74
2021/09/28 04:44:44;;;;;;;5.47;1.85;;;12.80;99.90;;;12.46;100.00;101773.41;4138458;28;20034;-75
2021/09/28 04:46:45;;;;;;;6.45;1.90;;;12.90;99.90;;;12.50;100.00;101774.78;4134228;28;20030;-75
2021/09/28 04:48:46;;;;;;;7.47;2.10;;;12.90;99.90;;;12.40;100.00;101771.31;4134327;28;20058;-75
2021/09/28 04:50:47;;;;;;;5.20;1.83;;;12.80;99.90;;;12.54;100.00;101770.03;4135435;28;20030;-75
2021/09/28 04:52:47;;;;;;;7.50;2.00;;;12.80;99.90;;;12.44;100.00;101761.28;4118252;28;20030;-75
2021/09/28 04:54:49;;;;;;;8.63;2.45;;;12.90;99.90;;;12.37;100.00;101760.19;4138059;28;20027;-75
2021/09/28 04:56:50;;;;;;;7.47;1.58;;;12.90;99.90;;;12.44;100.00;101769.22;4138400;28;20031;-75
2021/09/28 04:58:51;;;;;;;7.57;2.03;;;12.90;99.90;;;12.47;100.00;101775.06;4136845;28;20049;-75
2021/09/28 05:00:52;;;;;;;8.65;2.17;;;12.90;99.90;;;12.42;100.00;101763.25;4137015;28;20030;-75
2021/09/28 05:02:53;;;;;;;7.22;1.50;;;12.90;99.90;;;12.43;100.00;101771.03;4138385;28;20064;-75
2021/09/28 05:04:54;;;;;;;5.45;1.75;;;12.80;99.90;;;12.37;100.00;101763.66;4138194;28;20034;-75
2021/09/28 05:06:55;;;;;;;10.38;2.30;;;12.90;99.90;;;12.37;100.00;101765.47;4137876;28;20046;-75
2021/09/28 05:08:56;;;;;;;6.82;2.95;;;12.90;99.90;;;12.39;100.00;101755.59;4142372;28;20026;-74
2021/09/28 05:10:57;;;;;;;7.95;2.25;;;12.80;99.90;;;12.38;100.00;101765.34;4146942;28;20072;-75
2021/09/28 05:12:57;;;;;;;5.60;1.45;;;12.80;99.90;;;12.32;100.00;101765.06;4136654;28;20522;-75
2021/09/28 05:14:58;;;;;;;7.50;1.75;;;12.90;99.90;;;12.31;100.00;101766.03;4136651;28;20573;-75
2021/09/28 05:16:59;;;;;;;6.70;1.83;;;12.80;99.90;;;12.29;100.00;101773.28;4138093;28;20027;-75
2021/09/28 05:19:01;;;;;;;11.60;3.47;;;12.80;99.90;;;12.26;100.00;101769.13;4141694;28;20028;-75
2021/09/28 05:21:02;;;;;;;9.00;2.13;;;12.80;99.90;;;12.24;100.00;101765.78;4143348;28;20086;-75
2021/09/28 05:23:04;;;;;;;6.20;2.10;;;12.70;99.90;;;12.25;100.00;101774.53;4167464;28;20032;-75
2021/09/28 05:25:05;;;;;;;9.77;1.90;;;12.70;99.90;;;12.30;100.00;101767.88;4137847;28;20041;-75
2021/09/28 05:27:06;;;;;;;6.88;2.15;;;12.70;99.90;;;12.36;100.00;101769.94;4128492;28;20026;-75
2021/09/28 05:29:07;;;;;;;4.43;1.77;;;12.80;99.90;;;12.29;100.00;101762.72;4155144;28;20034;-75
2021/09/28 05:31:09;;;;;;;6.82;1.80;;;12.70;99.90;;;12.24;100.00;101757.84;4153689;28;20037;-75
2021/09/28 05:33:11;;;;;;;7.32;1.80;;;12.80;99.90;;;12.33;100.00;101758.81;4153756;28;20100;-75
2021/09/28 05:35:13;;;;;;;7.07;1.98;;;12.80;99.90;;;12.26;100.00;101747.97;4150581;28;20031;-75
2021/09/28 05:37:14;;;;;;;7.57;1.48;;;12.80;99.90;;;12.31;100.00;101748.34;4150039;28;20033;-75
2021/09/28 05:39:15;;;;;;;7.32;1.67;;;12.70;99.90;;;12.48;100.00;101754.75;4141130;28;20041;-75
2021/09/28 05:41:16;;;;;;;8.93;2.28;;;12.80;99.90;;;12.40;100.00;101744.00;4153840;28;20026;-75
2021/09/28 05:43:17;;;;;;;12.15;2.03;;;12.90;99.90;;;12.41;100.00;101746.53;4153002;28;20021;-75
2021/09/28 05:45:18;;;;;;;12.02;2.17;;;12.90;99.90;;;12.50;100.00;101747.47;4142719;28;20026;-75
2021/09/28 05:47:19;;;;;;;12.35;2.60;;;12.90;99.90;;;12.39;100.00;101737.06;4136357;28;20109;-76
2021/09/28 05:49:19;;;;;;;7.40;2.10;;;12.90;99.90;;;12.36;100.00;101740.00;4136282;28;20030;-75
2021/09/28 05:51:21;;;;;;;9.02;2.15;;;12.90;99.90;;;12.26;100.00;101737.38;4137503;28;20061;-75
2021/09/28 05:53:23;;;;;;;9.85;2.17;;;12.90;99.90;;;12.27;100.00;101746.16;4122709;28;20062;-75
2021/09/28 05:55:24;;;;;;;5.38;1.45;;;12.80;99.90;;;12.36;100.00;101747.94;4140982;28;20078;-76
2021/09/28 05:57:25;;;;;;;8.65;2.47;;;12.90;99.90;;;12.31;100.00;101758.09;4136269;28;20030;-75
2021/09/28 05:59:26;;;;;;;8.27;1.70;;;12.80;99.90;;;12.18;100.00;101751.28;4119820;28;20034;-75
2021/09/28 06:01:27;;;;;;;9.23;2.42;;;12.80;99.90;;;12.23;100.00;101748.25;4136095;28;20030;-75
2021/09/28 06:03:29;;;;;;;8.57;2.50;;;12.80;99.90;;;12.30;100.00;101749.34;4132280;28;20026;-75
2021/09/28 06:05:30;;;;;;;5.60;2.25;;;12.80;99.90;;;12.33;100.00;101748.22;4151435;28;20046;-75
2021/09/28 06:07:31;;;;;;;8.48;2.97;;;12.80;99.90;;;12.38;100.00;101743.34;4130275;28;20026;-75
2021/09/28 06:09:38;;;;;;;6.20;3.10;;;12.80;99.90;;;12.48;100.00;101744.16;4145138;28;20041;-75
2021/09/28 06:11:40;;;;;;;10.23;2.15;;;12.80;99.90;;;12.54;100.00;101746.22;4139242;28;20102;-75
2021/09/28 06:13:41;;;;;;;6.75;1.75;;;12.90;99.90;;;12.55;100.00;101747.88;4119533;28;20110;-74
2021/09/28 06:15:43;;;;;;;8.80;2.17;;;12.90;99.90;;;12.44;100.00;101735.66;4135969;28;20031;-74
2021/09/28 06:17:43;;;;;;;6.72;2.03;;;12.90;99.90;;;12.38;100.00;101736.25;4135956;28;20026;-75
2021/09/28 06:19:44;;;;;;;8.75;1.90;;;12.90;99.90;;;12.41;100.00;101746.53;4136995;28;20210;-73
2021/09/28 06:21:45;;;;;;;11.82;2.38;;;12.80;99.90;;;12.45;100.00;101744.44;4119764;28;20406;-73
2021/09/28 06:23:46;;;;;;;7.15;2.63;;;12.90;99.90;;;12.44;100.00;101743.59;4136998;28;20023;-73
2021/09/28 06:25:47;;;;;;;10.20;2.28;;;12.90;99.90;;;12.52;100.00;101748.16;4136932;28;20058;-73
2021/09/28 06:27:48;;;;;;;14.25;4.20;;;12.80;99.90;;;12.39;100.00;101735.28;4136575;28;20473;-73
2021/09/28 06:29:49;;;;;;;7.40;3.00;;;12.80;99.90;;;12.46;100.00;101749.56;4136780;28;20498;-73
2021/09/28 06:31:50;;;;;;;11.57;4.78;;;12.90;99.90;;;12.50;100.00;101740.38;4135666;28;20037;-73
2021/09/28 06:33:51;;;;;;;15.88;6.70;;;12.90;99.90;;;12.57;100.00;101740.66;4135576;28;20026;-73
2021/09/28 06:35:52;;;;;;;14.30;7.05;;;12.90;99.90;;;12.56;100.00;101739.81;4131706;28;20065;-73
2021/09/28 06:37:54;;;;;;;17.30;9.23;;;12.90;99.90;;;12.55;100.00;101738.13;4151064;28;20132;-73
2021/09/28 06:39:55;;;;;;;16.33;10.35;;;13.00;99.90;;;12.67;100.00;101741.44;4153008;28;20056;-73
2021/09/28 06:41:56;;;;;;;26.00;15.80;;;13.00;99.90;;;12.75;100.00;101742.38;4151762;28;20029;-73
2021/09/28 06:43:58;;;;;;;36.60;20.02;;;13.00;99.90;;;12.70;100.00;101739.31;4151101;28;20191;-73
2021/09/28 06:45:59;;;;;;;36.28;23.85;;;13.10;99.90;;;12.51;100.00;101741.22;4138404;28;20430;-73
2021/09/28 06:48:01;;;;;;;32.40;21.05;;;13.00;99.90;;;12.53;100.00;101740.09;4147305;28;20401;-74
2021/09/28 06:50:02;;;;;;;39.92;23.85;;;13.00;99.90;;;12.61;100.00;101737.56;4143619;28;20027;-74
2021/09/28 06:52:03;;;;;;;33.95;22.08;;;13.00;99.90;;;12.60;100.00;101730.56;4142557;28;20047;-74
2021/09/28 06:54:04;;;;;;;38.85;22.52;;;13.00;99.90;;;12.60;100.00;101729.78;4136400;28;20026;-74
2021/09/28 06:56:05;;;;;;;35.75;23.10;;;13.10;99.90;;;12.64;100.00;101739.06;4135369;28;20053;-74
2021/09/28 06:58:07;;;;;;;34.97;20.63;;;13.00;99.90;;;12.69;100.00;101731.53;4136244;28;20513;-71
2021/09/28 07:00:09;;;;;;;38.22;21.02;;;13.10;99.90;;;12.65;100.00;101722.22;4136399;28;20066;-74
2021/09/28 07:02:09;;;;;;;35.65;21.00;;;13.10;99.90;;;12.69;100.00;101731.53;4136266;28;20509;-73
2021/09/28 07:04:10;;;;;;;35.70;21.55;;;13.10;99.90;;;12.80;100.00;101731.34;4136420;28;20034;-74
2021/09/28 07:06:11;;;;;;;28.48;15.57;;;13.20;99.90;;;12.78;100.00;101735.97;4136254;28;20113;-74
2021/09/28 07:08:12;;;;;;;24.70;13.73;;;13.20;99.90;;;12.82;100.00;101731.19;4136412;28;20040;-74
2021/09/28 07:10:13;;;;;;;20.08;10.85;;;13.30;99.90;;;12.92;100.00;101739.94;4133393;28;20034;-77
2021/09/28 07:12:14;;;;;;;20.45;9.50;;;13.30;99.90;;;12.94;100.00;101737.97;4151402;28;20026;-77
2021/09/28 07:14:15;;;;;;;17.50;8.07;;;13.40;99.90;;;13.01;100.00;101733.75;4143223;28;20062;-76
2021/09/28 07:16:17;;;;;;;18.65;7.65;;;13.50;99.90;;;13.03;100.00;101726.47;4134397;28;20093;-76
2021/09/28 07:18:18;;;;;;;12.60;5.90;;;13.50;99.90;;;13.03;100.00;101739.72;4135757;28;20101;-76
2021/09/28 07:20:19;;;;;;;17.08;6.30;;;13.60;99.90;;;13.02;100.00;101724.84;4140071;28;20037;-77
2021/09/28 07:22:20;;;;;;;12.10;4.78;;;13.60;99.90;;;13.10;100.00;101732.91;4142523;28;20101;-77
2021/09/28 07:24:21;;;;;;;11.30;5.15;;;13.60;99.90;;;13.12;100.00;101723.81;4140993;28;20033;-77
2021/09/28 07:26:22;;;;;;;15.40;5.32;;;13.70;99.90;;;13.21;100.00;101725.59;4141388;28;20026;-77
2021/09/28 07:28:24;;;;;;;15.25;5.05;;;13.80;99.90;;;13.29;100.00;101725.66;4158491;28;20445;-77
2021/09/28 07:30:27;;;;;;;14.68;5.63;;;13.90;99.90;;;13.44;100.00;101725.16;4141653;28;20042;-77
2021/09/28 07:32:28;;;;;;;14.80;5.50;;;14.00;99.90;;;13.48;100.00;101724.69;4158114;28;20520;-77
2021/09/28 07:34:31;;;;;;;14.32;4.68;;;14.10;99.90;;;13.57;100.00;101726.44;4143057;28;20026;-76
2021/09/28 07:36:32;;;;;;;56.70;31.38;;;14.10;99.90;;;13.73;100.00;101725.75;4140757;28;20108;-77
2021/09/28 07:38:34;;;;;;;18.38;6.40;;;14.30;99.90;;;13.72;100.00;101718.78;4143923;28;20033;-78
2021/09/28 07:40:35;;;;;;;13.95;5.88;;;14.30;99.90;;;13.81;100.00;101725.81;4143741;28;20105;-77
2021/09/28 07:42:36;;;;;;;15.27;5.45;;;14.40;99.90;;;13.76;100.00;101721.00;4142341;28;20529;-77
2021/09/28 07:44:37;;;;;;;10.20;3.83;;;14.50;99.90;;;13.83;100.00;101726.50;4138175;28;20564;-76
2021/09/28 07:46:38;;;;;;;10.75;3.63;;;14.60;99.90;;;13.98;100.00;101724.97;4135900;28;20398;-76
2021/09/28 07:48:39;;;;;;;13.25;4.15;;;14.60;99.90;;;14.10;100.00;101723.72;4135819;28;20031;-76
2021/09/28 07:50:40;;;;;;;8.00;3.33;;;14.70;99.90;;;14.09;100.00;101723.91;4134722;28;20037;-76
2021/09/28 07:52:41;;;;;;;12.25;3.30;;;14.80;99.90;;;14.20;100.00;101726.28;4138452;28;20046;-77
2021/09/28 07:54:42;;;;;;;14.13;2.90;;;14.90;99.90;;;14.33;100.00;101732.06;4142220;28;20081;-76
2021/09/28 07:56:43;;;;;;;5.68;2.67;;;14.90;99.90;;;14.33;100.00;101734.72;4145681;28;20030;-76
2021/09/28 07:58:45;;;;;;;11.18;3.03;;;15.00;99.90;;;14.28;100.00;101732.47;4150194;28;20033;-77
2021/09/28 08:00:45;;;;;;;10.25;2.65;;;15.10;99.90;;;14.30;100.00;101732.34;4152020;28;20030;-77
2021/09/28 08:02:47;;;;;;;9.35;2.85;;;15.10;99.90;;;14.33;100.00;101730.25;4150759;28;20041;-77
2021/09/28 08:04:47;;;;;;;13.20;6.22;;;15.20;99.90;;;14.31;100.00;101731.34;4151855;28;20037;-77
2021/09/28 08:06:48;;;;;;;8.52;3.33;;;15.30;99.90;;;14.49;100.00;101736.63;4150130;28;20049;-76
2021/09/28 08:08:49;;;;;;;6.35;2.00;;;15.40;99.90;;;14.64;100.00;101730.56;4144084;28;20104;-75
2021/09/28 08:10:50;;;;;;;7.65;2.13;;;15.50;99.90;;;14.82;99.75;101736.63;4160249;28;20551;-73
2021/09/28 08:12:51;;;;;;;12.90;2.72;;;15.60;99.90;;;14.94;98.54;101748.66;4151390;28;20034;-74
2021/09/28 08:14:53;;;;;;;9.20;2.53;;;15.70;99.90;;;15.09;97.50;101727.59;4149138;28;20037;-74
2021/09/28 08:16:54;;;;;;;9.98;2.15;;;15.90;99.90;;;15.27;97.46;101733.66;4135361;28;20450;-74